sensor_id;sensor_type;location;lat;lon;timestamp;P1;durP1;ratioP1;P2;durP2;ratioP2
60233;SDS011;49514;43.538;-5.708;2023-12-07T00:01:38;56.97;;;19.30;;
60233;SDS011;49514;43.538;-5.708;2023-12-07T00:04:06;66.35;;;19.50;;
60233;SDS011;49514;43.538;-5.708;2023-12-07T00:06:32;72.90;;;24.77;;
60233;SDS011;49514;43.538;-5.708;2023-12-07T00:08:59;85.13;;;28.77;;
60233;SDS011;49514;43.538;-5.708;2023-12-07T00:11:27;92.32;;;29.75;;
60233;SDS011;49514;43.538;-5.708;2023-12-07T00:13:53;54.67;;;20.40;;
60233;SDS011;49514;43.538;-5.708;2023-12-07T00:16:20;33.22;;;13.20;;
60233;SDS011;49514;43.538;-5.708;2023-12-07T00:18:47;24.67;;;8.85;;
60233;SDS011;49514;43.538;-5.708;2023-12-07T00:21:14;17.20;;;7.47;;
60233;SDS011;49514;43.538;-5.708;2023-12-07T00:23:40;18.15;;;8.00;;
60233;SDS011;49514;43.538;-5.708;2023-12-07T00:26:07;18.40;;;8.18;;
60233;SDS011;49514;43.538;-5.708;2023-12-07T00:28:34;22.20;;;8.00;;
60233;SDS011;49514;43.538;-5.708;2023-12-07T00:31:01;20.70;;;8.27;;
60233;SDS011;49514;43.538;-5.708;2023-12-07T00:33:28;22.02;;;7.90;;
60233;SDS011;49514;43.538;-5.708;2023-12-07T00:35:54;18.73;;;7.53;;
60233;SDS011;49514;43.538;-5.708;2023-12-07T00:38:21;17.40;;;7.25;;
60233;SDS011;49514;43.538;-5.708;2023-12-07T00:40:48;21.75;;;7.53;;
60233;SDS011;49514;43.538;-5.708;2023-12-07T00:43:15;14.48;;;7.40;;
60233;SDS011;49514;43.538;-5.708;2023-12-07T00:45:43;18.55;;;7.20;;
60233;SDS011;49514;43.538;-5.708;2023-12-07T00:48:09;17.58;;;6.97;;
60233;SDS011;49514;43.538;-5.708;2023-12-07T00:50:36;14.90;;;6.80;;
60233;SDS011;49514;43.538;-5.708;2023-12-07T00:53:02;15.80;;;7.13;;
60233;SDS011;49514;43.538;-5.708;2023-12-07T00:55:29;17.80;;;6.60;;
60233;SDS011;49514;43.538;-5.708;2023-12-07T00:57:56;16.75;;;6.57;;
60233;SDS011;49514;43.538;-5.708;2023-12-07T01:00:22;18.77;;;7.13;;
60233;SDS011;49514;43.538;-5.708;2023-12-07T01:02:49;16.55;;;6.70;;
60233;SDS011;49514;43.538;-5.708;2023-12-07T01:05:17;19.00;;;5.82;;
60233;SDS011;49514;43.538;-5.708;2023-12-07T01:07:44;14.25;;;6.15;;
60233;SDS011;49514;43.538;-5.708;2023-12-07T01:10:10;13.57;;;5.88;;
60233;SDS011;49514;43.538;-5.708;2023-12-07T01:12:37;25.65;;;10.50;;
60233;SDS011;49514;43.538;-5.708;2023-12-07T01:15:04;33.60;;;13.43;;
60233;SDS011;49514;43.538;-5.708;2023-12-07T01:17:31;21.83;;;9.70;;
60233;SDS011;49514;43.538;-5.708;2023-12-07T01:19:57;21.85;;;11.20;;
60233;SDS011;49514;43.538;-5.708;2023-12-07T01:22:24;16.30;;;9.68;;
60233;SDS011;49514;43.538;-5.708;2023-12-07T01:24:50;14.68;;;7.53;;
60233;SDS011;49514;43.538;-5.708;2023-12-07T01:27:17;15.98;;;5.90;;
60233;SDS011;49514;43.538;-5.708;2023-12-07T01:29:44;12.20;;;5.60;;
60233;SDS011;49514;43.538;-5.708;2023-12-07T01:32:10;11.18;;;5.38;;
60233;SDS011;49514;43.538;-5.708;2023-12-07T01:34:37;17.85;;;6.78;;
60233;SDS011;49514;43.538;-5.708;2023-12-07T01:37:03;23.05;;;8.15;;
60233;SDS011;49514;43.538;-5.708;2023-12-07T01:39:30;21.38;;;8.15;;
60233;SDS011;49514;43.538;-5.708;2023-12-07T01:41:56;18.75;;;7.57;;
60233;SDS011;49514;43.538;-5.708;2023-12-07T01:44:23;21.08;;;8.15;;
60233;SDS011;49514;43.538;-5.708;2023-12-07T01:46:50;23.88;;;9.10;;
60233;SDS011;49514;43.538;-5.708;2023-12-07T01:49:16;31.50;;;10.57;;
60233;SDS011;49514;43.538;-5.708;2023-12-07T01:51:43;35.00;;;11.82;;
60233;SDS011;49514;43.538;-5.708;2023-12-07T01:54:10;24.67;;;9.55;;
60233;SDS011;49514;43.538;-5.708;2023-12-07T01:56:36;22.65;;;9.00;;
60233;SDS011;49514;43.538;-5.708;2023-12-07T01:59:03;24.88;;;9.80;;
60233;SDS011;49514;43.538;-5.708;2023-12-07T02:01:30;29.48;;;10.35;;
60233;SDS011;49514;43.538;-5.708;2023-12-07T02:03:56;35.33;;;10.68;;
60233;SDS011;49514;43.538;-5.708;2023-12-07T02:06:23;20.63;;;9.05;;
60233;SDS011;49514;43.538;-5.708;2023-12-07T02:08:52;21.05;;;7.40;;
60233;SDS011;49514;43.538;-5.708;2023-12-07T02:11:19;20.52;;;7.90;;
60233;SDS011;49514;43.538;-5.708;2023-12-07T02:13:45;25.33;;;8.57;;
60233;SDS011;49514;43.538;-5.708;2023-12-07T02:19:01;27.65;;;9.65;;
60233;SDS011;49514;43.538;-5.708;2023-12-07T02:21:40;22.77;;;7.38;;
60233;SDS011;49514;43.538;-5.708;2023-12-07T02:24:24;21.33;;;6.93;;
60233;SDS011;49514;43.538;-5.708;2023-12-07T02:26:54;26.65;;;7.10;;
60233;SDS011;49514;43.538;-5.708;2023-12-07T02:29:21;23.30;;;6.63;;
60233;SDS011;49514;43.538;-5.708;2023-12-07T02:31:47;35.60;;;6.53;;
60233;SDS011;49514;43.538;-5.708;2023-12-07T02:34:14;30.30;;;7.20;;
60233;SDS011;49514;43.538;-5.708;2023-12-07T02:36:41;32.42;;;7.32;;
60233;SDS011;49514;43.538;-5.708;2023-12-07T02:39:10;31.05;;;7.68;;
60233;SDS011;49514;43.538;-5.708;2023-12-07T02:41:38;28.98;;;7.85;;
60233;SDS011;49514;43.538;-5.708;2023-12-07T02:44:07;24.13;;;8.15;;
60233;SDS011;49514;43.538;-5.708;2023-12-07T02:46:34;30.95;;;7.93;;
60233;SDS011;49514;43.538;-5.708;2023-12-07T02:49:01;22.80;;;7.30;;
60233;SDS011;49514;43.538;-5.708;2023-12-07T02:51:27;23.00;;;7.95;;
60233;SDS011;49514;43.538;-5.708;2023-12-07T02:53:54;20.38;;;9.05;;
60233;SDS011;49514;43.538;-5.708;2023-12-07T02:56:20;22.45;;;9.23;;
60233;SDS011;49514;43.538;-5.708;2023-12-07T02:58:47;26.58;;;10.00;;
60233;SDS011;49514;43.538;-5.708;2023-12-07T03:01:13;22.75;;;8.40;;
60233;SDS011;49514;43.538;-5.708;2023-12-07T03:03:40;22.85;;;8.75;;
60233;SDS011;49514;43.538;-5.708;2023-12-07T03:06:07;31.27;;;11.30;;
60233;SDS011;49514;43.538;-5.708;2023-12-07T03:08:34;32.47;;;11.68;;
60233;SDS011;49514;43.538;-5.708;2023-12-07T03:11:01;47.88;;;16.52;;
60233;SDS011;49514;43.538;-5.708;2023-12-07T03:13:27;66.05;;;22.90;;
60233;SDS011;49514;43.538;-5.708;2023-12-07T03:15:54;79.00;;;26.23;;
60233;SDS011;49514;43.538;-5.708;2023-12-07T03:18:21;77.00;;;25.85;;
60233;SDS011;49514;43.538;-5.708;2023-12-07T03:20:47;56.80;;;20.98;;
60233;SDS011;49514;43.538;-5.708;2023-12-07T03:23:16;44.40;;;16.20;;
60233;SDS011;49514;43.538;-5.708;2023-12-07T03:25:42;28.10;;;11.57;;
60233;SDS011;49514;43.538;-5.708;2023-12-07T03:28:09;25.33;;;9.35;;
60233;SDS011;49514;43.538;-5.708;2023-12-07T03:30:35;24.23;;;9.23;;
60233;SDS011;49514;43.538;-5.708;2023-12-07T03:33:02;31.70;;;9.65;;
60233;SDS011;49514;43.538;-5.708;2023-12-07T03:35:29;20.88;;;8.50;;
60233;SDS011;49514;43.538;-5.708;2023-12-07T03:37:55;18.08;;;7.18;;
60233;SDS011;49514;43.538;-5.708;2023-12-07T03:45:14;16.83;;;7.50;;
60233;SDS011;49514;43.538;-5.708;2023-12-07T03:47:41;17.65;;;7.00;;
60233;SDS011;49514;43.538;-5.708;2023-12-07T03:50:07;17.05;;;6.30;;
60233;SDS011;49514;43.538;-5.708;2023-12-07T03:52:34;19.73;;;7.15;;
60233;SDS011;49514;43.538;-5.708;2023-12-07T03:55:01;16.40;;;7.55;;
60233;SDS011;49514;43.538;-5.708;2023-12-07T03:57:28;18.45;;;8.27;;
60233;SDS011;49514;43.538;-5.708;2023-12-07T03:59:55;17.25;;;7.93;;
60233;SDS011;49514;43.538;-5.708;2023-12-07T04:02:21;25.77;;;9.40;;
60233;SDS011;49514;43.538;-5.708;2023-12-07T04:04:48;34.70;;;11.68;;
60233;SDS011;49514;43.538;-5.708;2023-12-07T04:07:15;57.40;;;18.38;;
60233;SDS011;49514;43.538;-5.708;2023-12-07T04:09:42;66.95;;;19.50;;
60233;SDS011;49514;43.538;-5.708;2023-12-07T08:21:39;22.15;;;6.93;;
60233;SDS011;49514;43.538;-5.708;2023-12-07T08:24:06;25.90;;;8.48;;
60233;SDS011;49514;43.538;-5.708;2023-12-07T08:31:26;25.60;;;7.53;;
60233;SDS011;49514;43.538;-5.708;2023-12-07T08:33:53;19.00;;;6.85;;
60233;SDS011;49514;43.538;-5.708;2023-12-07T08:36:19;19.45;;;6.28;;
60233;SDS011;49514;43.538;-5.708;2023-12-07T08:38:46;22.88;;;7.38;;
60233;SDS011;49514;43.538;-5.708;2023-12-07T08:41:13;21.67;;;7.50;;
60233;SDS011;49514;43.538;-5.708;2023-12-07T08:43:39;53.65;;;15.88;;
60233;SDS011;49514;43.538;-5.708;2023-12-07T08:46:06;46.67;;;15.70;;
60233;SDS011;49514;43.538;-5.708;2023-12-07T08:48:33;54.47;;;16.48;;
60233;SDS011;49514;43.538;-5.708;2023-12-07T08:51:01;42.97;;;14.20;;
60233;SDS011;49514;43.538;-5.708;2023-12-07T08:53:28;34.15;;;11.50;;
60233;SDS011;49514;43.538;-5.708;2023-12-07T08:55:55;19.20;;;6.30;;
60233;SDS011;49514;43.538;-5.708;2023-12-07T08:58:22;11.45;;;3.00;;
60233;SDS011;49514;43.538;-5.708;2023-12-07T09:00:48;5.85;;;2.20;;
60233;SDS011;49514;43.538;-5.708;2023-12-07T09:03:16;9.02;;;2.80;;
60233;SDS011;49514;43.538;-5.708;2023-12-07T09:05:43;3.38;;;1.92;;
60233;SDS011;49514;43.538;-5.708;2023-12-07T09:08:10;3.10;;;1.00;;
60233;SDS011;49514;43.538;-5.708;2023-12-07T09:10:36;3.97;;;1.50;;
60233;SDS011;49514;43.538;-5.708;2023-12-07T09:13:03;4.18;;;1.92;;
60233;SDS011;49514;43.538;-5.708;2023-12-07T09:15:31;4.55;;;2.45;;
60233;SDS011;49514;43.538;-5.708;2023-12-07T09:20:26;19.95;;;8.38;;
60233;SDS011;49514;43.538;-5.708;2023-12-07T09:22:53;13.00;;;5.55;;
60233;SDS011;49514;43.538;-5.708;2023-12-07T09:25:21;8.38;;;2.55;;
60233;SDS011;49514;43.538;-5.708;2023-12-07T09:27:48;4.93;;;1.80;;
60233;SDS011;49514;43.538;-5.708;2023-12-07T09:30:15;7.65;;;1.70;;
60233;SDS011;49514;43.538;-5.708;2023-12-07T09:32:42;7.18;;;1.88;;
60233;SDS011;49514;43.538;-5.708;2023-12-07T09:35:09;12.98;;;3.97;;
60233;SDS011;49514;43.538;-5.708;2023-12-07T09:37:45;37.55;;;12.60;;
60233;SDS011;49514;43.538;-5.708;2023-12-07T09:40:19;52.08;;;16.33;;
60233;SDS011;49514;43.538;-5.708;2023-12-07T09:45:14;5.63;;;2.65;;
60233;SDS011;49514;43.538;-5.708;2023-12-07T09:47:46;2.33;;;1.10;;
60233;SDS011;49514;43.538;-5.708;2023-12-07T09:50:18;2.15;;;1.35;;
60233;SDS011;49514;43.538;-5.708;2023-12-07T09:52:49;4.40;;;1.85;;
60233;SDS011;49514;43.538;-5.708;2023-12-07T09:55:18;9.40;;;3.00;;
60233;SDS011;49514;43.538;-5.708;2023-12-07T09:57:45;13.40;;;3.83;;
60233;SDS011;49514;43.538;-5.708;2023-12-07T10:00:12;8.20;;;3.03;;
60233;SDS011;49514;43.538;-5.708;2023-12-07T10:02:42;5.00;;;1.92;;
60233;SDS011;49514;43.538;-5.708;2023-12-07T10:05:10;4.45;;;1.13;;
60233;SDS011;49514;43.538;-5.708;2023-12-07T10:07:46;4.50;;;1.80;;
60233;SDS011;49514;43.538;-5.708;2023-12-07T10:10:15;11.68;;;5.55;;
60233;SDS011;49514;43.538;-5.708;2023-12-07T10:12:53;9.88;;;4.63;;
60233;SDS011;49514;43.538;-5.708;2023-12-07T10:15:22;5.20;;;2.03;;
60233;SDS011;49514;43.538;-5.708;2023-12-07T10:17:56;3.83;;;1.27;;
60233;SDS011;49514;43.538;-5.708;2023-12-07T10:20:25;4.38;;;1.00;;
60233;SDS011;49514;43.538;-5.708;2023-12-07T10:25:30;2.90;;;0.80;;
60233;SDS011;49514;43.538;-5.708;2023-12-07T11:17:54;2.85;;;0.80;;
60233;SDS011;49514;43.538;-5.708;2023-12-07T17:34:24;8.10;;;1.58;;
60233;SDS011;49514;43.538;-5.708;2023-12-07T17:39:18;11.95;;;2.05;;
60233;SDS011;49514;43.538;-5.708;2023-12-07T17:41:45;8.48;;;1.83;;
60233;SDS011;49514;43.538;-5.708;2023-12-07T17:44:13;13.85;;;2.65;;
60233;SDS011;49514;43.538;-5.708;2023-12-07T17:46:40;13.23;;;1.85;;
60233;SDS011;49514;43.538;-5.708;2023-12-07T17:49:06;8.65;;;1.73;;
60233;SDS011;49514;43.538;-5.708;2023-12-07T17:51:36;18.13;;;2.35;;
60233;SDS011;49514;43.538;-5.708;2023-12-07T17:54:03;12.45;;;2.15;;
60233;SDS011;49514;43.538;-5.708;2023-12-07T17:56:31;7.95;;;1.55;;
60233;SDS011;49514;43.538;-5.708;2023-12-07T17:58:58;9.05;;;1.48;;
60233;SDS011;49514;43.538;-5.708;2023-12-07T18:01:25;4.45;;;1.17;;
60233;SDS011;49514;43.538;-5.708;2023-12-07T18:03:53;6.90;;;1.52;;
60233;SDS011;49514;43.538;-5.708;2023-12-07T18:06:19;21.48;;;2.10;;
60233;SDS011;49514;43.538;-5.708;2023-12-07T18:08:46;17.02;;;4.88;;
60233;SDS011;49514;43.538;-5.708;2023-12-07T18:11:19;21.17;;;4.20;;
60233;SDS011;49514;43.538;-5.708;2023-12-07T18:13:47;26.03;;;9.00;;
60233;SDS011;49514;43.538;-5.708;2023-12-07T18:16:17;30.98;;;8.85;;
60233;SDS011;49514;43.538;-5.708;2023-12-07T18:18:44;17.33;;;5.93;;
60233;SDS011;49514;43.538;-5.708;2023-12-07T18:21:13;11.25;;;5.00;;
60233;SDS011;49514;43.538;-5.708;2023-12-07T18:23:39;10.63;;;5.32;;
60233;SDS011;49514;43.538;-5.708;2023-12-07T18:26:13;11.60;;;4.38;;
60233;SDS011;49514;43.538;-5.708;2023-12-07T18:28:39;11.40;;;4.55;;
60233;SDS011;49514;43.538;-5.708;2023-12-07T18:31:06;8.40;;;3.22;;
60233;SDS011;49514;43.538;-5.708;2023-12-07T18:33:33;10.48;;;2.95;;
60233;SDS011;49514;43.538;-5.708;2023-12-07T18:36:00;7.93;;;3.03;;
60233;SDS011;49514;43.538;-5.708;2023-12-07T18:38:27;5.75;;;2.30;;
60233;SDS011;49514;43.538;-5.708;2023-12-07T18:40:53;5.13;;;2.17;;
60233;SDS011;49514;43.538;-5.708;2023-12-07T18:43:20;5.88;;;2.50;;
60233;SDS011;49514;43.538;-5.708;2023-12-07T18:45:48;6.80;;;2.10;;
60233;SDS011;49514;43.538;-5.708;2023-12-07T18:48:15;6.78;;;3.08;;
60233;SDS011;49514;43.538;-5.708;2023-12-07T18:50:42;10.38;;;3.90;;
60233;SDS011;49514;43.538;-5.708;2023-12-07T18:53:09;12.57;;;3.90;;
60233;SDS011;49514;43.538;-5.708;2023-12-07T18:55:36;11.70;;;3.35;;
60233;SDS011;49514;43.538;-5.708;2023-12-07T18:58:04;12.00;;;2.80;;
60233;SDS011;49514;43.538;-5.708;2023-12-07T19:00:30;11.18;;;3.25;;
60233;SDS011;49514;43.538;-5.708;2023-12-07T19:02:59;14.40;;;3.08;;
60233;SDS011;49514;43.538;-5.708;2023-12-07T19:05:28;8.55;;;2.72;;
60233;SDS011;49514;43.538;-5.708;2023-12-07T19:07:54;11.25;;;2.08;;
60233;SDS011;49514;43.538;-5.708;2023-12-07T19:10:23;10.18;;;2.00;;
60233;SDS011;49514;43.538;-5.708;2023-12-07T19:12:49;9.73;;;2.15;;
60233;SDS011;49514;43.538;-5.708;2023-12-07T19:15:16;9.95;;;2.10;;
60233;SDS011;49514;43.538;-5.708;2023-12-07T19:17:43;17.27;;;2.30;;
60233;SDS011;49514;43.538;-5.708;2023-12-07T19:20:09;10.20;;;2.55;;
60233;SDS011;49514;43.538;-5.708;2023-12-07T19:22:36;10.98;;;2.53;;
60233;SDS011;49514;43.538;-5.708;2023-12-07T19:25:03;8.45;;;2.17;;
60233;SDS011;49514;43.538;-5.708;2023-12-07T19:27:30;10.10;;;2.55;;
60233;SDS011;49514;43.538;-5.708;2023-12-07T19:29:57;14.88;;;2.88;;
60233;SDS011;49514;43.538;-5.708;2023-12-07T19:32:24;12.35;;;4.00;;
60233;SDS011;49514;43.538;-5.708;2023-12-07T19:34:52;14.93;;;4.70;;
60233;SDS011;49514;43.538;-5.708;2023-12-07T19:37:18;10.68;;;4.72;;
60233;SDS011;49514;43.538;-5.708;2023-12-07T19:39:45;12.63;;;4.68;;
60233;SDS011;49514;43.538;-5.708;2023-12-07T19:42:12;24.17;;;5.03;;
60233;SDS011;49514;43.538;-5.708;2023-12-07T19:44:39;14.27;;;5.22;;
60233;SDS011;49514;43.538;-5.708;2023-12-07T19:47:05;17.65;;;5.65;;
60233;SDS011;49514;43.538;-5.708;2023-12-07T19:49:32;11.65;;;4.75;;
60233;SDS011;49514;43.538;-5.708;2023-12-07T19:52:01;11.60;;;5.03;;
60233;SDS011;49514;43.538;-5.708;2023-12-07T19:54:27;10.45;;;4.07;;
60233;SDS011;49514;43.538;-5.708;2023-12-07T19:56:54;12.85;;;5.07;;
60233;SDS011;49514;43.538;-5.708;2023-12-07T19:59:21;15.70;;;5.80;;
60233;SDS011;49514;43.538;-5.708;2023-12-07T20:01:49;11.63;;;4.45;;
60233;SDS011;49514;43.538;-5.708;2023-12-07T20:04:16;14.25;;;4.13;;
60233;SDS011;49514;43.538;-5.708;2023-12-07T20:06:43;14.15;;;4.13;;
60233;SDS011;49514;43.538;-5.708;2023-12-07T20:09:10;24.02;;;4.47;;
60233;SDS011;49514;43.538;-5.708;2023-12-07T20:11:40;25.67;;;4.57;;
60233;SDS011;49514;43.538;-5.708;2023-12-07T20:14:07;11.32;;;3.80;;
60233;SDS011;49514;43.538;-5.708;2023-12-07T20:16:34;15.40;;;3.58;;
60233;SDS011;49514;43.538;-5.708;2023-12-07T20:19:01;8.02;;;2.75;;
60233;SDS011;49514;43.538;-5.708;2023-12-07T20:21:29;14.52;;;4.38;;
60233;SDS011;49514;43.538;-5.708;2023-12-07T20:23:56;29.48;;;7.88;;
60233;SDS011;49514;43.538;-5.708;2023-12-07T20:26:23;25.20;;;7.80;;
60233;SDS011;49514;43.538;-5.708;2023-12-07T20:28:50;17.20;;;4.90;;
60233;SDS011;49514;43.538;-5.708;2023-12-07T20:31:20;20.42;;;5.47;;
60233;SDS011;49514;43.538;-5.708;2023-12-07T20:33:47;23.35;;;5.88;;
60233;SDS011;49514;43.538;-5.708;2023-12-07T20:36:13;29.95;;;5.35;;
60233;SDS011;49514;43.538;-5.708;2023-12-07T20:38:40;20.92;;;4.25;;
60233;SDS011;49514;43.538;-5.708;2023-12-07T20:41:09;13.18;;;3.30;;
60233;SDS011;49514;43.538;-5.708;2023-12-07T20:43:38;15.05;;;2.90;;
60233;SDS011;49514;43.538;-5.708;2023-12-07T20:46:05;18.48;;;3.85;;
60233;SDS011;49514;43.538;-5.708;2023-12-07T20:48:31;26.80;;;4.80;;
60233;SDS011;49514;43.538;-5.708;2023-12-07T20:50:59;30.50;;;4.13;;
60233;SDS011;49514;43.538;-5.708;2023-12-07T20:53:26;16.02;;;3.72;;
60233;SDS011;49514;43.538;-5.708;2023-12-07T20:55:52;16.65;;;2.60;;
60233;SDS011;49514;43.538;-5.708;2023-12-07T20:58:21;29.33;;;2.90;;
60233;SDS011;49514;43.538;-5.708;2023-12-07T21:00:48;33.00;;;3.15;;
60233;SDS011;49514;43.538;-5.708;2023-12-07T21:03:15;23.77;;;2.70;;
60233;SDS011;49514;43.538;-5.708;2023-12-07T21:05:41;20.42;;;2.63;;
60233;SDS011;49514;43.538;-5.708;2023-12-07T21:08:11;16.15;;;2.03;;
60233;SDS011;49514;43.538;-5.708;2023-12-07T21:10:38;22.48;;;3.03;;
60233;SDS011;49514;43.538;-5.708;2023-12-07T21:13:04;22.33;;;2.45;;
60233;SDS011;49514;43.538;-5.708;2023-12-07T21:15:31;21.38;;;3.42;;
60233;SDS011;49514;43.538;-5.708;2023-12-07T21:18:00;29.55;;;3.30;;
60233;SDS011;49514;43.538;-5.708;2023-12-07T21:20:28;30.88;;;3.67;;
60233;SDS011;49514;43.538;-5.708;2023-12-07T21:22:56;22.40;;;3.67;;
60233;SDS011;49514;43.538;-5.708;2023-12-07T21:25:23;19.88;;;3.25;;
60233;SDS011;49514;43.538;-5.708;2023-12-07T21:27:51;19.10;;;3.03;;
60233;SDS011;49514;43.538;-5.708;2023-12-07T21:30:18;34.95;;;3.00;;
60233;SDS011;49514;43.538;-5.708;2023-12-07T21:32:45;17.48;;;2.72;;
60233;SDS011;49514;43.538;-5.708;2023-12-07T21:35:13;21.88;;;3.08;;
60233;SDS011;49514;43.538;-5.708;2023-12-07T21:37:40;18.27;;;2.40;;
60233;SDS011;49514;43.538;-5.708;2023-12-07T21:40:07;17.85;;;2.80;;
60233;SDS011;49514;43.538;-5.708;2023-12-07T21:42:34;27.90;;;3.17;;
60233;SDS011;49514;43.538;-5.708;2023-12-07T21:45:01;39.05;;;3.97;;
60233;SDS011;49514;43.538;-5.708;2023-12-07T21:47:30;25.50;;;2.80;;
60233;SDS011;49514;43.538;-5.708;2023-12-07T21:49:57;27.88;;;3.28;;
60233;SDS011;49514;43.538;-5.708;2023-12-07T21:52:23;23.67;;;2.70;;
60233;SDS011;49514;43.538;-5.708;2023-12-07T21:54:51;21.42;;;2.65;;
60233;SDS011;49514;43.538;-5.708;2023-12-07T21:57:18;21.98;;;3.00;;
60233;SDS011;49514;43.538;-5.708;2023-12-07T21:59:46;11.60;;;2.05;;
60233;SDS011;49514;43.538;-5.708;2023-12-07T22:02:16;26.17;;;3.33;;
60233;SDS011;49514;43.538;-5.708;2023-12-07T22:04:43;24.88;;;2.28;;
60233;SDS011;49514;43.538;-5.708;2023-12-07T22:07:10;14.90;;;1.98;;
60233;SDS011;49514;43.538;-5.708;2023-12-07T22:09:36;15.52;;;2.38;;
